Time;durP1;ratioP1;P1;durP2;ratioP2;P2;SDS_P1;SDS_P2;PMS_P1;PMS_P2;Temp;Humidity;BMP_temperature;BMP_pressure;BME280_temperature;BME280_humidity;BME280_pressure;Samples;Min_cycle;Max_cycle;Signal;HPM_P1;HPM_P2
2022/07/06 00:00:19;;;;;;;4.80;1.50;;;;;;;18.25;52.92;101103.16;5050153;28;20057;-63
2022/07/06 00:02:46;;;;;;;3.97;1.55;;;;;;;18.16;52.99;101106.06;5042815;28;20481;-63
2022/07/06 00:05:13;;;;;;;2.55;1.50;;;;;;;18.10;53.41;101113.13;5053425;28;20072;-63
2022/07/06 00:07:41;;;;;;;3.17;1.50;;;;;;;18.02;53.52;101100.78;5052600;28;20059;-63
2022/07/06 00:10:08;;;;;;;2.08;1.48;;;;;;;17.97;53.69;101111.44;5052088;28;20045;-63
2022/07/06 00:12:36;;;;;;;3.60;1.40;;;;;;;17.89;53.90;101109.53;5048881;28;20049;-63
2022/07/06 00:15:03;;;;;;;2.03;1.40;;;;;;;17.85;54.21;101107.44;5053137;28;20056;-63
2022/07/06 00:17:32;;;;;;;2.97;1.33;;;;;;;17.81;54.30;101106.44;5052978;28;20053;-63
2022/07/06 00:19:59;;;;;;;4.40;1.50;;;;;;;17.76;54.41;101103.03;5052985;28;20076;-63
2022/07/06 00:22:27;;;;;;;2.63;1.40;;;;;;;17.76;54.38;101112.28;5048092;28;20510;-63
2022/07/06 00:24:54;;;;;;;3.78;1.50;;;;;;;17.74;54.50;101117.44;5052834;28;20045;-63
2022/07/06 00:27:22;;;;;;;4.90;1.60;;;;;;;17.67;54.58;101117.19;5052785;28;20053;-63
2022/07/06 00:29:49;;;;;;;3.45;1.80;;;;;;;17.62;54.42;101104.16;5052848;28;20389;-63
2022/07/06 00:32:16;;;;;;;2.80;1.40;;;;;;;17.60;54.66;101116.97;5048471;28;20053;-63
2022/07/06 00:34:45;;;;;;;3.25;1.50;;;;;;;17.57;54.71;101115.63;5052302;28;20054;-63
2022/07/06 00:37:15;;;;;;;5.73;1.40;;;;;;;17.52;54.81;101121.50;5052708;28;20378;-63
2022/07/06 00:39:42;;;;;;;2.90;1.30;;;;;;;17.52;54.95;101115.84;5049841;28;20497;-63
2022/07/06 00:42:09;;;;;;;3.67;1.60;;;;;;;17.52;55.06;101123.50;5050593;28;20045;-63
2022/07/06 00:44:37;;;;;;;2.90;1.30;;;;;;;17.52;55.05;101115.84;5052077;28;20053;-63
2022/07/06 00:47:05;;;;;;;3.08;1.67;;;;;;;17.54;54.92;101113.53;5052546;28;20056;-63
2022/07/06 00:52:19;;;;;;;5.10;1.70;;;;;;;17.45;55.23;101122.06;5058434;28;20060;-63
2022/07/06 00:54:47;;;;;;;3.13;1.73;;;;;;;17.42;55.29;101122.72;5052237;28;20057;-63
2022/07/06 00:57:15;;;;;;;4.65;1.90;;;;;;;17.40;55.31;101130.69;5052163;28;20057;-63
2022/07/06 00:59:43;;;;;;;4.35;1.67;;;;;;;17.37;55.50;101130.59;5051422;28;20057;-63
2022/07/06 01:02:11;;;;;;;3.15;1.70;;;;;;;17.38;55.21;101120.97;5047746;28;20490;-63
2022/07/06 01:04:38;;;;;;;4.10;1.80;;;;;;;17.37;55.24;101120.13;5052023;28;20072;-63
2022/07/06 01:07:05;;;;;;;3.38;1.92;;;;;;;17.31;55.36;101124.34;5047567;28;20477;-63
2022/07/06 01:09:34;;;;;;;4.35;1.75;;;;;;;17.28;55.45;101125.00;5051672;28;20473;-63
2022/07/06 01:12:01;;;;;;;7.03;2.63;;;;;;;17.24;55.48;101121.25;5050731;28;20145;-63
2022/07/06 01:14:29;;;;;;;3.13;1.70;;;;;;;17.24;55.57;101126.88;5051525;28;20049;-63
2022/07/06 01:16:57;;;;;;;6.00;2.28;;;;;;;17.22;55.60;101129.22;5051778;28;20057;-63
2022/07/06 01:19:24;;;;;;;2.75;1.65;;;;;;;17.23;55.49;101122.41;5051486;28;20079;-63
2022/07/06 01:21:53;;;;;;;3.28;1.70;;;;;;;17.25;55.59;101125.72;5047590;28;20060;-63
2022/07/06 01:24:21;;;;;;;4.77;1.80;;;;;;;17.25;55.44;101125.72;5051722;28;20056;-63
2022/07/06 01:26:48;;;;;;;2.80;1.80;;;;;;;17.27;55.43;101125.38;5051848;28;20064;-63
2022/07/06 01:29:15;;;;;;;2.83;1.63;;;;;;;17.28;55.45;101112.94;5051571;28;20048;-63
2022/07/06 01:31:48;;;;;;;3.30;1.90;;;;;;;17.30;55.25;101113.41;5049647;28;20045;-63
2022/07/06 01:34:16;;;;;;;2.60;1.40;;;;;;;17.27;55.23;101117.75;5051706;28;20063;-63
2022/07/06 01:36:44;;;;;;;2.35;1.40;;;;;;;17.29;55.27;101109.78;5051328;28;20053;-63
2022/07/06 01:39:13;;;;;;;4.18;1.90;;;;;;;17.27;55.24;101116.94;5047285;28;20052;-63
2022/07/06 01:41:40;;;;;;;3.27;1.70;;;;;;;17.26;55.27;101118.94;5050117;28;20053;-63
2022/07/06 01:44:08;;;;;;;3.50;1.73;;;;;;;17.23;55.26;101117.59;5051527;28;20580;-63
2022/07/06 01:46:35;;;;;;;2.13;1.70;;;;;;;17.23;55.23;101119.59;5051567;28;20057;-63
2022/07/06 01:49:03;;;;;;;2.80;1.90;;;;;;;17.18;55.30;101117.81;5051491;28;20065;-63
2022/07/06 01:51:31;;;;;;;3.03;1.70;;;;;;;17.12;55.17;101124.00;5049143;28;20049;-63
2022/07/06 01:53:58;;;;;;;4.47;1.80;;;;;;;17.03;55.38;101116.44;5051221;28;20413;-63
2022/07/06 01:56:27;;;;;;;2.72;1.73;;;;;;;16.99;55.31;101123.09;5051661;28;20383;-63
2022/07/06 01:58:54;;;;;;;3.03;1.77;;;;;;;16.96;55.37;101115.34;5051695;28;20057;-63
2022/07/06 02:01:21;;;;;;;3.65;1.90;;;;;;;16.90;55.55;101120.31;5042911;28;20045;-63
2022/07/06 02:03:49;;;;;;;3.38;1.60;;;;;;;16.87;55.85;101115.41;5054658;28;20049;-63
2022/07/06 02:06:16;;;;;;;3.75;1.52;;;;;;;16.84;55.72;101116.09;5055568;28;20060;-63
2022/07/06 02:08:44;;;;;;;3.08;1.60;;;;;;;16.84;55.57;101116.09;5055138;28;20064;-63
2022/07/06 02:11:12;;;;;;;2.63;1.73;;;;;;;16.86;55.55;101107.28;5052896;28;20416;-63
2022/07/06 02:13:40;;;;;;;3.97;1.73;;;;;;;16.85;55.41;101112.09;5055162;28;20049;-63
2022/07/06 02:16:08;;;;;;;2.97;1.77;;;;;;;16.82;55.75;101118.44;5055487;28;20049;-63
2022/07/06 02:18:35;;;;;;;3.72;1.85;;;;;;;16.84;55.48;101110.47;5055136;28;20417;-63
2022/07/06 02:21:05;;;;;;;4.05;1.67;;;;;;;16.81;55.71;101113.94;5053276;28;20393;-63
2022/07/06 02:23:32;;;;;;;2.65;1.70;;;;;;;16.73;55.71;101114.78;5055210;28;20481;-63
2022/07/06 02:25:59;;;;;;;2.30;1.60;;;;;;;16.75;55.66;101110.47;5055193;28;20049;-63
2022/07/06 02:28:31;;;;;;;7.38;1.83;;;;;;;16.70;55.88;101116.31;5055239;28;20057;-65
2022/07/06 02:31:00;;;;;;;3.85;1.95;;;;;;;16.67;55.75;101124.59;5053190;28;20415;-63
2022/07/06 02:33:27;;;;;;;2.87;1.67;;;;;;;16.60;55.57;101114.69;5035438;28;20061;-63
2022/07/06 02:35:54;;;;;;;5.43;1.77;;;;;;;16.57;55.44;101123.84;5035260;28;20503;-63
2022/07/06 02:38:21;;;;;;;3.28;1.83;;;;;;;16.47;55.83;101114.97;5035103;28;20049;-63
2022/07/06 02:40:49;;;;;;;3.20;2.08;;;;;;;16.37;56.26;101116.97;5048838;28;20056;-63
2022/07/06 02:43:16;;;;;;;2.60;1.90;;;;;;;16.29;56.54;101120.63;5054942;28;20405;-63
2022/07/06 02:45:44;;;;;;;4.40;1.90;;;;;;;16.21;56.48;101122.34;5054386;28;20053;-63
2022/07/06 02:48:12;;;;;;;5.25;2.20;;;;;;;16.10;56.97;101115.44;5054724;28;20481;-63
2022/07/06 02:50:40;;;;;;;3.30;1.80;;;;;;;15.96;57.02;101118.47;5053512;28;20421;-63
2022/07/06 02:53:07;;;;;;;4.00;1.70;;;;;;;15.93;57.21;101113.50;5054649;28;20433;-64
2022/07/06 02:55:34;;;;;;;3.88;2.00;;;;;;;15.78;57.63;101116.84;5054271;28;20045;-63
2022/07/06 02:58:01;;;;;;;3.80;1.73;;;;;;;15.77;57.57;101124.47;5054557;28;20060;-63
2022/07/06 03:00:29;;;;;;;4.25;2.00;;;;;;;15.75;57.68;101131.59;5046722;28;20054;-63
2022/07/06 03:02:56;;;;;;;3.00;1.80;;;;;;;15.71;58.00;101122.97;5054556;28;20049;-63
2022/07/06 03:05:25;;;;;;;2.45;1.60;;;;;;;15.68;58.36;101129.22;5054525;28;20350;-67
2022/07/06 03:07:53;;;;;;;3.57;2.00;;;;;;;15.54;58.73;101122.97;5054119;28;20382;-68
2022/07/06 03:10:20;;;;;;;3.53;1.95;;;;;;;15.55;58.80;101127.44;5049345;28;20049;-66
2022/07/06 03:12:47;;;;;;;3.13;1.90;;;;;;;15.53;58.85;101135.38;5052790;28;20120;-67
2022/07/06 03:15:14;;;;;;;4.38;2.10;;;;;;;15.54;58.74;101128.59;5054382;28;20053;-68
2022/07/06 03:17:42;;;;;;;3.65;2.10;;;;;;;15.47;59.03;101131.06;5049762;28;20052;-67
2022/07/06 03:20:09;;;;;;;3.35;2.20;;;;;;;15.39;59.44;101133.56;5054219;28;20056;-68
2022/07/06 03:22:38;;;;;;;4.55;2.10;;;;;;;15.36;59.71;101139.00;5053522;28;20049;-68
2022/07/06 03:25:06;;;;;;;3.83;1.95;;;;;;;15.34;59.68;101136.53;5053768;28;20049;-67
2022/07/06 03:27:33;;;;;;;5.50;2.40;;;;;;;15.26;59.88;101142.97;5049893;28;20501;-67
2022/07/06 03:30:01;;;;;;;3.78;2.40;;;;;;;15.21;60.01;101151.56;5053281;28;20071;-68
2022/07/06 03:32:29;;;;;;;3.83;2.38;;;;;;;15.15;60.11;101147.25;5053836;28;20055;-67
2022/07/06 03:34:56;;;;;;;5.05;2.97;;;;;;;15.14;60.48;101157.66;5053327;28;20059;-68
2022/07/06 03:37:23;;;;;;;5.07;2.45;;;;;;;15.14;60.37;101156.81;5051641;28;20080;-68
2022/07/06 03:39:52;;;;;;;5.85;2.38;;;;;;;15.09;60.31;101146.59;5053478;28;20052;-67
2022/07/06 03:42:19;;;;;;;8.38;2.78;;;;;;;15.05;60.53;101150.38;5053361;28;20049;-67
2022/07/06 03:44:46;;;;;;;9.35;2.63;;;;;;;15.00;60.77;101148.56;5053140;28;20470;-68
2022/07/06 03:47:14;;;;;;;4.55;2.53;;;;;;;14.98;61.08;101145.25;5053629;28;20417;-68
2022/07/06 03:49:41;;;;;;;4.65;2.50;;;;;;;14.96;61.04;101147.56;5048663;28;20053;-68
2022/07/06 03:52:08;;;;;;;3.17;2.33;;;;;;;14.93;61.15;101146.25;5053629;28;20049;-68
2022/07/06 03:54:36;;;;;;;5.22;2.58;;;;;;;14.84;61.38;101139.78;5052925;28;20056;-67
2022/07/06 03:57:04;;;;;;;5.18;2.60;;;;;;;14.89;61.18;101141.59;5052941;28;20053;-67
2022/07/06 03:59:32;;;;;;;4.90;2.70;;;;;;;14.89;61.21;101141.59;5051410;28;20056;-68
2022/07/06 04:01:59;;;;;;;4.25;2.40;;;;;;;14.86;61.49;101140.28;5052922;28;20052;-68
2022/07/06 04:04:26;;;;;;;3.13;2.30;;;;;;;14.87;61.44;101139.16;5052942;28;20053;-68
2022/07/06 04:06:54;;;;;;;3.92;2.40;;;;;;;14.87;61.15;101139.16;5052585;28;20737;-68
2022/07/06 04:09:21;;;;;;;4.25;2.50;;;;;;;14.86;61.78;101145.91;5048053;28;20053;-68
2022/07/06 04:11:48;;;;;;;6.10;2.60;;;;;;;14.90;61.72;101151.69;5052483;28;20061;-68
2022/07/06 04:14:17;;;;;;;5.70;2.60;;;;;;;14.94;61.66;101152.69;5052743;28;20060;-67
2022/07/06 04:16:44;;;;;;;3.88;2.60;;;;;;;14.98;61.23;101151.69;5052464;28;20413;-70
2022/07/06 04:19:11;;;;;;;6.93;2.67;;;;;;;15.03;60.79;101150.69;5051052;28;20064;-68
2022/07/06 04:21:39;;;;;;;3.42;2.03;;;;;;;15.05;61.26;101156.00;5052760;28;20417;-67
2022/07/06 04:24:06;;;;;;;3.40;2.50;;;;;;;14.96;61.77;101159.63;5051983;28;20052;-68
2022/07/06 04:26:43;;;;;;;3.38;2.20;;;;;;;15.08;61.10;101160.97;5051458;28;20064;-67
2022/07/06 04:29:10;;;;;;;3.47;2.05;;;;;;;15.14;61.59;101154.88;5049761;28;20436;-68
2022/07/06 04:31:39;;;;;;;4.10;2.03;;;;;;;15.21;61.36;101160.81;5037144;28;20324;-67
2022/07/06 04:34:06;;;;;;;3.47;2.05;;;;;;;15.25;60.85;101157.34;5032874;28;20049;-68
2022/07/06 04:36:34;;;;;;;7.30;2.85;;;;;;;15.30;60.79;101165.59;5032296;28;20064;-68
2022/07/06 04:39:01;;;;;;;5.22;2.85;;;;;;;15.42;60.72;101149.75;5041258;28;20060;-68
2022/07/06 04:41:28;;;;;;;3.50;2.40;;;;;;;15.49;60.76;101148.41;5046163;28;20059;-68
2022/07/06 04:43:55;;;;;;;3.83;2.20;;;;;;;15.60;60.65;101149.72;5051543;28;20049;-68
2022/07/06 04:46:24;;;;;;;4.93;2.65;;;;;;;15.67;60.64;101143.63;5051851;28;20053;-68
2022/07/06 04:48:52;;;;;;;4.65;2.28;;;;;;;15.85;60.15;101145.25;5051750;28;20057;-67
2022/07/06 04:51:20;;;;;;;3.45;2.15;;;;;;;16.02;59.45;101147.19;5046935;28;20417;-68
2022/07/06 04:53:47;;;;;;;4.85;2.47;;;;;;;16.09;59.34;101144.72;5049651;28;20067;-67
2022/07/06 04:56:14;;;;;;;5.45;2.10;;;;;;;16.28;58.98;101152.75;5045388;28;20065;-67
2022/07/06 04:58:42;;;;;;;5.25;1.95;;;;;;;16.44;58.97;101153.84;5045201;28;20056;-62
2022/07/06 05:01:09;;;;;;;4.15;1.98;;;;;;;16.32;59.88;101158.53;5048650;28;20524;-61
2022/07/06 05:03:40;;;;;;;6.38;2.30;;;;;;;16.34;59.69;101157.03;5044973;28;20060;-61
2022/07/06 05:06:09;;;;;;;4.03;2.08;;;;;;;16.11;60.31;101153.63;5032013;28;20056;-61
2022/07/06 05:08:36;;;;;;;3.75;2.20;;;;;;;16.24;59.77;101152.59;5046219;28;20060;-61
2022/07/06 05:11:03;;;;;;;4.50;2.25;;;;;;;16.18;60.13;101142.69;5047000;28;20061;-61
2022/07/06 05:13:31;;;;;;;4.15;2.20;;;;;;;16.27;60.07;101141.81;5045914;28;20070;-61
2022/07/06 05:15:58;;;;;;;3.50;1.52;;;;;;;16.62;58.90;101143.31;5039418;28;20064;-60
2022/07/06 05:18:25;;;;;;;4.82;2.03;;;;;;;16.91;58.24;101146.50;5051897;28;20052;-61
2022/07/06 05:20:53;;;;;;;6.32;2.10;;;;;;;16.27;59.51;101150.25;5051558;28;20056;-60
2022/07/06 05:23:21;;;;;;;6.60;2.20;;;;;;;16.26;59.62;101148.63;5051420;28;20044;-60
2022/07/06 05:25:49;;;;;;;6.23;2.07;;;;;;;16.24;59.71;101152.59;5049203;28;20414;-59
2022/07/06 05:28:16;;;;;;;6.43;2.83;;;;;;;16.53;59.07;101150.97;5051778;28;20048;-60
2022/07/06 05:30:43;;;;;;;5.53;2.15;;;;;;;16.79;58.27;101150.00;5039183;28;20053;-61
2022/07/06 05:33:10;;;;;;;4.47;1.77;;;;;;;16.61;58.78;101163.38;5034703;28;20045;-60
2022/07/06 05:35:38;;;;;;;5.75;2.25;;;;;;;16.57;58.91;101154.78;5031588;28;20076;-61
2022/07/06 05:38:05;;;;;;;5.32;2.47;;;;;;;16.43;59.03;101160.59;5039240;28;20148;-60
2022/07/06 05:40:34;;;;;;;4.35;2.10;;;;;;;16.66;58.46;101157.53;5048194;28;20053;-64
2022/07/06 05:43:01;;;;;;;3.83;1.95;;;;;;;16.96;57.42;101160.34;5049060;28;20049;-64
2022/07/06 05:45:29;;;;;;;4.97;2.00;;;;;;;16.98;57.10;101156.03;5050050;28;20057;-64
2022/07/06 05:50:41;;;;;;;4.63;1.80;;;;;;;17.35;56.27;101161.91;5048350;28;20063;-63
2022/07/06 05:53:09;;;;;;;4.15;1.95;;;;;;;17.49;55.72;101172.91;5047336;28;20133;-64
2022/07/06 05:55:37;;;;;;;4.25;1.80;;;;;;;17.53;55.68;101173.00;5050031;28;20060;-64
2022/07/06 05:58:05;;;;;;;4.38;1.83;;;;;;;17.55;55.62;101168.66;5047558;28;20057;-64
2022/07/06 06:00:32;;;;;;;6.55;2.10;;;;;;;17.61;55.53;101169.28;5045487;28;20049;-64
2022/07/06 06:03:00;;;;;;;5.05;2.28;;;;;;;17.67;55.29;101178.38;5032691;28;20370;-64
2022/07/06 06:05:28;;;;;;;3.85;2.00;;;;;;;17.73;55.18;101174.16;5048972;28;20076;-63
2022/07/06 06:07:55;;;;;;;4.32;2.13;;;;;;;17.82;54.79;101172.06;5044419;28;20057;-64
2022/07/06 06:10:23;;;;;;;5.65;2.03;;;;;;;17.89;54.89;101174.34;5039552;28;20057;-64
2022/07/06 06:12:52;;;;;;;5.10;2.03;;;;;;;17.94;54.61;101185.44;5032895;28;20147;-64
2022/07/06 06:15:20;;;;;;;8.93;2.38;;;;;;;18.01;54.40;101188.50;5030573;28;20059;-65
2022/07/06 06:17:47;;;;;;;4.43;2.30;;;;;;;17.98;54.43;101184.38;5031064;28;20088;-65
2022/07/06 06:20:15;;;;;;;6.88;2.30;;;;;;;18.21;53.99;101181.97;5030559;28;20054;-64
2022/07/06 06:22:48;;;;;;;7.15;2.20;;;;;;;18.39;53.57;101191.03;5045239;28;20049;-64
2022/07/06 06:25:15;;;;;;;5.20;2.33;;;;;;;18.55;52.96;101187.56;5050879;28;20061;-65
2022/07/06 06:27:43;;;;;;;5.63;2.10;;;;;;;18.83;52.88;101187.69;5050508;28;20060;-63
2022/07/06 06:30:13;;;;;;;4.45;1.75;;;;;;;19.12;51.50;101185.81;5050928;28;20059;-65
2022/07/06 06:32:41;;;;;;;4.45;1.80;;;;;;;19.24;51.30;101182.97;5048263;28;20120;-65
2022/07/06 06:35:09;;;;;;;5.20;1.75;;;;;;;19.46;50.59;101179.63;5050313;28;20409;-64
2022/07/06 06:37:37;;;;;;;4.95;1.90;;;;;;;19.61;49.94;101186.50;5050612;28;20059;-65
2022/07/06 06:40:06;;;;;;;6.22;1.80;;;;;;;19.95;49.67;101194.75;5050631;28;20053;-65
2022/07/06 06:42:36;;;;;;;3.53;1.70;;;;;;;19.98;49.56;101182.72;5048799;28;20049;-65
2022/07/06 06:45:04;;;;;;;5.38;2.17;;;;;;;20.24;48.85;101182.22;5050562;28;20210;-64
2022/07/06 06:47:32;;;;;;;4.05;1.90;;;;;;;20.32;47.95;101186.06;5051988;28;20057;-64
2022/07/06 06:49:59;;;;;;;3.50;1.50;;;;;;;20.44;47.51;101183.97;5054256;28;20060;-65
2022/07/06 06:52:27;;;;;;;5.03;1.80;;;;;;;20.59;47.12;101178.69;5049915;28;20052;-65
2022/07/06 06:54:54;;;;;;;4.22;1.50;;;;;;;20.58;46.70;101177.88;5053914;28;20049;-64
2022/07/06 06:57:21;;;;;;;3.45;1.25;;;;;;;20.58;46.65;101186.38;5054256;28;20409;-64
2022/07/06 06:59:49;;;;;;;7.18;1.55;;;;;;;20.67;47.01;101192.66;5053777;28;20064;-58
2022/07/06 07:02:16;;;;;;;4.75;1.60;;;;;;;20.65;46.69;101195.03;5053690;28;20056;-58
2022/07/06 07:04:45;;;;;;;3.60;1.15;;;;;;;20.70;46.53;101191.09;5051660;28;20465;-58
2022/07/06 07:07:12;;;;;;;4.97;1.25;;;;;;;21.15;46.29;101186.13;5054260;28;20049;-58
2022/07/06 07:09:39;;;;;;;5.90;1.70;;;;;;;21.42;45.98;101190.81;5053329;28;20060;-58
2022/07/06 07:12:07;;;;;;;3.63;1.38;;;;;;;21.59;44.55;101191.59;5053688;28;20409;-58
2022/07/06 07:14:34;;;;;;;6.40;1.63;;;;;;;21.44;44.38;101193.25;5052009;28;20056;-58
2022/07/06 07:17:02;;;;;;;3.33;1.10;;;;;;;21.32;45.22;101193.38;5053564;28;20379;-58
2022/07/06 07:19:29;;;;;;;3.92;1.38;;;;;;;21.33;45.06;101195.03;5053539;28;20057;-58
2022/07/06 07:21:58;;;;;;;4.43;1.40;;;;;;;21.23;45.03;101190.75;5053319;28;20061;-58
2022/07/06 07:24:25;;;;;;;4.40;1.40;;;;;;;21.26;45.51;101196.50;5053476;28;20049;-59
2022/07/06 07:26:52;;;;;;;5.82;1.50;;;;;;;21.53;44.51;101187.41;5051450;28;20385;-59
2022/07/06 07:29:20;;;;;;;8.38;1.67;;;;;;;21.53;44.17;101184.56;5053718;28;20060;-61
2022/07/06 07:31:47;;;;;;;4.07;1.40;;;;;;;21.49;43.73;101201.50;5053625;28;20411;-61
2022/07/06 07:34:15;;;;;;;3.85;1.17;;;;;;;21.62;43.36;101199.34;5053609;28;20052;-61
2022/07/06 07:36:43;;;;;;;3.88;1.30;;;;;;;21.74;43.25;101199.19;5051804;28;20071;-61
2022/07/06 07:39:11;;;;;;;1.95;1.00;;;;;;;21.80;44.64;101202.56;5053354;28;20053;-61
2022/07/06 07:41:39;;;;;;;2.75;1.10;;;;;;;21.73;44.58;101203.19;5053552;28;20053;-60
2022/07/06 07:44:06;;;;;;;4.43;1.40;;;;;;;21.65;44.18;101207.09;5053034;28;20060;-61
2022/07/06 07:46:33;;;;;;;3.30;0.90;;;;;;;21.45;44.76;101209.91;5043979;28;20049;-61
2022/07/06 07:49:01;;;;;;;3.90;0.98;;;;;;;21.38;43.82;101215.41;5032942;28;20485;-60
2022/07/06 07:51:28;;;;;;;6.28;1.30;;;;;;;21.35;44.12;101204.78;5033104;28;20057;-60
2022/07/06 07:53:55;;;;;;;5.32;1.45;;;;;;;21.23;45.23;101210.56;5032568;28;20060;-60
2022/07/06 07:56:24;;;;;;;5.75;1.40;;;;;;;21.28;44.95;101210.31;5033867;28;20067;-60
2022/07/06 07:58:51;;;;;;;3.47;1.30;;;;;;;21.11;44.95;101210.72;5052089;28;20500;-60
2022/07/06 08:01:19;;;;;;;7.40;1.67;;;;;;;21.11;46.25;101210.72;5053149;28;20405;-61
2022/07/06 08:03:46;;;;;;;4.15;1.10;;;;;;;21.23;45.76;101213.41;5052358;28;20045;-60
2022/07/06 08:06:13;;;;;;;2.53;0.73;;;;;;;21.18;44.33;101210.88;5052692;28;20057;-61
2022/07/06 08:08:40;;;;;;;1.85;0.80;;;;;;;21.12;43.24;101209.50;5048577;28;20053;-61
2022/07/06 08:11:09;;;;;;;3.33;1.08;;;;;;;20.88;43.41;101205.72;5051898;28;20065;-60
2022/07/06 08:13:38;;;;;;;5.00;0.90;;;;;;;21.08;43.34;101207.44;5052821;28;20056;-61
2022/07/06 08:16:06;;;;;;;3.15;1.10;;;;;;;21.05;43.45;101202.47;5052849;28;20056;-61
2022/07/06 08:18:33;;;;;;;3.88;0.90;;;;;;;21.35;43.33;101207.63;5053103;28;20406;-60
2022/07/06 08:21:01;;;;;;;2.92;1.02;;;;;;;21.73;42.74;101203.19;5050530;28;20056;-61
2022/07/06 08:23:28;;;;;;;4.40;1.67;;;;;;;23.40;39.35;101202.94;5052688;28;20052;-60
2022/07/06 08:25:56;;;;;;;3.35;1.42;;;;;;;23.44;39.49;101200.97;5052154;28;20049;-61
2022/07/06 08:28:23;;;;;;;3.00;1.23;;;;;;;23.59;38.46;101196.28;5052430;28;20048;-60
2022/07/06 08:30:54;;;;;;;4.75;1.00;;;;;;;23.55;38.41;101203.94;5050348;28;20064;-61
2022/07/06 08:33:21;;;;;;;3.35;1.25;;;;;;;23.51;37.95;101201.84;5052761;28;20056;-60
2022/07/06 08:35:48;;;;;;;2.72;0.82;;;;;;;23.41;37.81;101194.00;5052779;28;20060;-60
2022/07/06 11:24:53;;;;;;;2.20;0.80;;;;;;;27.78;27.73;101177.41;4794531;28;20061;-64
2022/07/06 11:27:23;;;;;;;5.78;1.40;;;;;;;27.58;27.97;101174.22;5011957;28;20050;-64
2022/07/06 11:29:52;;;;;;;3.30;1.10;;;;;;;27.35;28.25;101160.41;5002185;28;20050;-64
2022/07/06 11:32:25;;;;;;;3.38;0.80;;;;;;;27.28;28.38;101169.03;5011105;28;20209;-64
2022/07/06 11:34:53;;;;;;;2.88;0.80;;;;;;;27.46;28.49;101166.91;5011694;28;20077;-64
2022/07/06 11:37:23;;;;;;;3.50;1.10;;;;;;;28.52;26.74;101168.81;5012036;28;20068;-64
2022/07/06 11:39:50;;;;;;;1.90;0.95;;;;;;;29.05;25.83;101161.78;5007381;28;20053;-64
2022/07/06 11:42:19;;;;;;;4.03;1.00;;;;;;;29.16;25.64;101163.75;5011821;28;20053;-64
2022/07/06 11:44:47;;;;;;;3.05;0.75;;;;;;;29.23;24.91;101152.19;5025411;28;20057;-64
2022/07/06 11:47:15;;;;;;;3.33;0.93;;;;;;;28.43;26.33;101156.97;5033927;28;20398;-64
2022/07/06 11:49:45;;;;;;;2.40;0.77;;;;;;;28.30;26.67;101166.06;5023953;28;20050;-64
2022/07/06 11:52:14;;;;;;;3.25;0.80;;;;;;;27.87;26.94;101162.69;5025741;28;20057;-64
2022/07/06 11:54:43;;;;;;;2.50;0.90;;;;;;;27.66;27.04;101158.66;5033531;28;20060;-64
2022/07/06 11:57:12;;;;;;;2.25;0.90;;;;;;;27.38;27.82;101153.84;5033649;28;20060;-64
2022/07/06 11:59:41;;;;;;;2.33;0.80;;;;;;;27.16;28.46;101167.38;5032634;28;20406;-64
2022/07/06 12:02:11;;;;;;;1.58;0.90;;;;;;;26.88;29.02;101162.53;5032861;28;20498;-64
2022/07/06 12:04:42;;;;;;;2.72;1.10;;;;;;;26.75;29.02;101161.31;5033465;28;20053;-64
2022/07/06 12:07:12;;;;;;;1.92;0.80;;;;;;;26.58;29.40;101162.94;5033290;28;20057;-64
2022/07/06 12:09:41;;;;;;;2.83;1.13;;;;;;;26.63;28.77;101159.72;5033392;28;20528;-64
2022/07/06 12:12:09;;;;;;;2.67;1.33;;;;;;;27.17;28.16;101157.56;5021954;28;20050;-63
2022/07/06 12:14:39;;;;;;;5.05;1.10;;;;;;;27.90;27.39;101151.19;5030654;28;20053;-63
2022/07/06 12:17:08;;;;;;;1.65;1.00;;;;;;;28.08;27.63;101151.09;5033013;28;20384;-63
2022/07/06 12:19:36;;;;;;;2.03;0.88;;;;;;;28.01;27.50;101151.13;5031626;28;20053;-63
2022/07/06 12:22:06;;;;;;;3.38;0.93;;;;;;;28.98;25.44;101144.66;5018323;28;20065;-63
2022/07/06 12:24:35;;;;;;;1.95;1.05;;;;;;;29.31;25.15;101136.50;5038290;28;20401;-63
2022/07/06 12:27:11;;;;;;;2.05;1.05;;;;;;;29.90;24.66;101138.22;5052943;28;20044;-63
2022/07/06 12:29:39;;;;;;;3.28;1.17;;;;;;;30.58;23.51;101130.63;5052896;28;20057;-63
2022/07/06 12:32:07;;;;;;;2.55;1.23;;;;;;;30.78;23.03;101133.56;5062447;28;20048;-63
2022/07/06 12:34:35;;;;;;;2.60;1.02;;;;;;;31.78;22.36;101120.06;5072552;28;20052;-63
2022/07/06 12:37:09;;;;;;;2.42;1.17;;;;;;;31.46;22.30;101115.81;5072712;28;20417;-63
2022/07/06 12:39:43;;;;;;;3.38;1.35;;;;;;;30.95;22.62;101112.28;5072849;28;20477;-63
2022/07/06 12:42:11;;;;;;;2.55;0.90;;;;;;;31.01;22.94;101109.72;5065330;28;20055;-63
2022/07/06 12:44:44;;;;;;;2.25;0.80;;;;;;;30.68;22.54;101104.56;5069514;28;20517;-63
2022/07/06 12:47:12;;;;;;;1.98;0.80;;;;;;;30.21;23.00;101110.25;5072080;28;20071;-63
2022/07/06 12:49:40;;;;;;;2.70;1.00;;;;;;;29.99;23.68;101103.22;5072632;28;20067;-63
2022/07/06 12:52:14;;;;;;;1.77;0.90;;;;;;;30.77;23.18;101103.19;5070919;28;20052;-63
2022/07/06 12:54:43;;;;;;;3.50;0.90;;;;;;;30.49;22.61;101088.06;5072469;28;20053;-63
2022/07/06 12:57:15;;;;;;;2.30;0.82;;;;;;;30.05;23.64;101096.56;5072599;28;20048;-63
2022/07/06 12:59:45;;;;;;;1.67;0.80;;;;;;;29.63;23.99;101095.94;5072118;28;20507;-63
2022/07/06 13:02:21;;;;;;;1.70;0.70;;;;;;;29.41;24.07;101103.19;5070170;28;20390;-63
2022/07/06 13:04:59;;;;;;;2.67;0.90;;;;;;;28.90;24.73;101102.94;5072103;28;20057;-63
2022/07/06 13:07:28;;;;;;;3.70;1.10;;;;;;;28.76;25.14;101098.16;5072063;28;20497;-63
2022/07/06 13:09:56;;;;;;;2.40;1.17;;;;;;;29.35;25.00;101102.84;5072104;28;20052;-63
2022/07/06 13:12:23;;;;;;;3.83;1.37;;;;;;;30.04;24.02;101102.75;5065527;28;20490;-62
2022/07/06 13:14:52;;;;;;;2.60;1.00;;;;;;;30.04;24.00;101092.06;5071963;28;20494;-63
2022/07/06 13:17:21;;;;;;;2.10;1.00;;;;;;;30.13;24.06;101095.22;5072014;28;20056;-63
2022/07/06 13:19:48;;;;;;;2.92;1.10;;;;;;;29.85;24.05;101093.56;5072005;28;20481;-64
2022/07/06 13:22:15;;;;;;;3.15;1.17;;;;;;;30.59;22.90;101089.94;5063241;28;20053;-63
2022/07/06 13:24:44;;;;;;;3.58;1.00;;;;;;;30.68;23.23;101081.56;5068539;28;20562;-63
2022/07/06 13:27:12;;;;;;;3.63;1.10;;;;;;;29.77;23.97;101079.75;5071831;28;20055;-63
2022/07/06 13:29:40;;;;;;;4.75;1.13;;;;;;;29.91;24.47;101083.22;5071859;28;20048;-63
2022/07/06 13:32:08;;;;;;;3.83;1.20;;;;;;;29.58;24.20;101086.97;5071782;28;20044;-63
2022/07/06 13:34:36;;;;;;;1.90;0.90;;;;;;;29.06;24.58;101091.69;5070013;28;20052;-63
2022/07/06 13:37:04;;;;;;;4.85;1.33;;;;;;;28.79;25.27;101067.81;5072009;28;20508;-63
2022/07/06 13:39:32;;;;;;;3.30;1.33;;;;;;;29.17;25.09;101070.69;5071709;28;20408;-63
2022/07/06 13:42:01;;;;;;;2.05;1.20;;;;;;;29.44;25.24;101065.84;5071808;28;20492;-63
2022/07/06 13:44:28;;;;;;;2.83;1.52;;;;;;;30.00;24.60;101068.31;5067510;28;20431;-63
2022/07/06 13:46:56;;;;;;;3.75;1.42;;;;;;;30.43;22.76;101073.38;5071188;28;20052;-63
2022/07/06 13:49:23;;;;;;;2.90;1.00;;;;;;;30.64;23.31;101075.06;5071735;28;20485;-63
2022/07/06 13:51:50;;;;;;;3.05;1.38;;;;;;;30.63;23.25;101061.91;5071702;28;20057;-63
2022/07/06 13:54:18;;;;;;;2.10;0.90;;;;;;;30.83;22.40;101059.09;5069585;28;20052;-63
2022/07/06 13:56:45;;;;;;;3.38;1.20;;;;;;;30.43;22.59;101056.13;5073369;28;20052;-63
2022/07/06 13:59:14;;;;;;;3.30;1.10;;;;;;;30.52;23.30;101055.56;5075564;28;20405;-63
2022/07/06 14:01:41;;;;;;;2.78;1.17;;;;;;;30.82;23.05;101068.16;5075321;28;20504;-63
2022/07/06 14:04:08;;;;;;;3.65;1.20;;;;;;;30.90;22.94;101061.84;5071276;28;20761;-63
2022/07/06 14:06:35;;;;;;;2.78;1.20;;;;;;;30.82;23.14;101068.94;5072390;28;20048;-63
2022/07/06 14:09:03;;;;;;;1.95;1.02;;;;;;;30.57;23.17;101065.75;5075084;28;20048;-63
2022/07/06 14:11:30;;;;;;;3.75;0.98;;;;;;;30.35;23.40;101071.88;5074222;28;20056;-63
2022/07/06 14:13:58;;;;;;;3.33;1.10;;;;;;;30.05;23.19;101070.72;5055092;28;20390;-63
2022/07/06 14:16:27;;;;;;;1.98;1.10;;;;;;;29.71;23.67;101073.69;5057837;28;20075;-63
2022/07/06 14:18:54;;;;;;;3.13;0.88;;;;;;;29.44;23.91;101062.97;5075139;28;20063;-63